createdAt,value
2023-03-13T00:00:55.453Z,4.63
2023-03-13T00:03:22.102Z,4.57
2023-03-13T00:05:48.696Z,4.47
2023-03-13T00:08:15.418Z,3.90
2023-03-13T00:10:42.201Z,4.60
2023-03-13T00:13:09.051Z,4.50
2023-03-13T00:15:35.587Z,4.30
2023-03-13T00:18:02.065Z,4.43
2023-03-13T00:20:29.425Z,3.50
2023-03-13T00:22:55.930Z,4.43
2023-03-13T00:25:22.508Z,4.35
2023-03-13T00:27:49.329Z,4.13
2023-03-13T00:30:15.962Z,4.53
2023-03-13T00:32:43.479Z,3.50
2023-03-13T00:35:10.073Z,4.57
2023-03-13T00:37:36.667Z,3.47
2023-03-13T00:40:04.672Z,4.43
2023-03-13T00:42:31.618Z,3.63
2023-03-13T00:44:58.164Z,4.45
2023-03-13T00:47:24.706Z,3.75
2023-03-13T00:49:51.561Z,4.22
2023-03-13T00:52:18.375Z,4.40
2023-03-13T00:54:44.954Z,3.78
2023-03-13T00:57:11.471Z,4.53
2023-03-13T00:59:37.970Z,4.50
2023-03-13T01:02:04.645Z,4.15
2023-03-13T01:04:32.479Z,3.63
2023-03-13T01:06:59.024Z,4.95
2023-03-13T01:09:25.512Z,4.53
2023-03-13T01:11:52.189Z,4.70
2023-03-13T01:14:19.976Z,4.30
2023-03-13T01:16:46.668Z,4.30
2023-03-13T01:19:15.050Z,3.78
2023-03-13T01:21:43.145Z,3.97
2023-03-13T01:24:09.951Z,3.92
2023-03-13T01:26:36.682Z,4.93
2023-03-13T01:29:03.651Z,3.97
2023-03-13T01:31:32.690Z,3.60
2023-03-13T01:34:01.954Z,4.47
2023-03-13T01:36:29.084Z,3.78
2023-03-13T01:38:57.667Z,3.80
2023-03-13T01:41:24.941Z,4.15
2023-03-13T01:43:52.127Z,3.42
2023-03-13T01:46:27.731Z,4.13
2023-03-13T01:49:35.722Z,3.60
2023-03-13T01:52:10.717Z,3.50
2023-03-13T01:55:00.134Z,3.97
2023-03-13T01:57:34.450Z,3.55
2023-03-13T02:00:23.438Z,4.57
2023-03-13T02:02:51.993Z,5.30
2023-03-13T02:05:20.737Z,3.80
2023-03-13T02:07:51.170Z,3.95
2023-03-13T02:10:18.527Z,3.72
2023-03-13T02:12:45.179Z,3.47
2023-03-13T02:15:14.511Z,3.78
2023-03-13T02:17:41.399Z,4.68
2023-03-13T02:20:09.655Z,3.55
2023-03-13T02:22:54.300Z,3.78
2023-03-13T02:25:23.684Z,4.05
2023-03-13T02:28:01.987Z,3.35
2023-03-13T02:30:30.193Z,3.85
2023-03-13T02:32:56.918Z,3.50
2023-03-13T02:35:24.167Z,4.25
2023-03-13T02:37:54.865Z,3.38
2023-03-13T02:40:25.832Z,4.03
2023-03-13T02:42:54.733Z,3.28
2023-03-13T02:45:21.689Z,3.75
2023-03-13T02:47:48.797Z,2.67
2023-03-13T02:50:15.679Z,3.38
2023-03-13T02:52:49.706Z,3.17
2023-03-13T02:55:22.599Z,2.70
2023-03-13T02:57:49.745Z,3.22
2023-03-13T03:00:17.764Z,2.88
2023-03-13T03:02:45.388Z,3.25
2023-03-13T03:05:13.079Z,3.05
2023-03-13T03:07:39.915Z,2.70
2023-03-13T03:10:07.977Z,2.45
2023-03-13T03:12:35.244Z,3.10
2023-03-13T03:15:04.746Z,2.70
2023-03-13T03:17:32.411Z,2.70
2023-03-13T03:19:58.948Z,2.55
2023-03-13T03:22:25.543Z,2.35
2023-03-13T03:24:52.174Z,2.33
2023-03-13T03:27:18.703Z,2.50
2023-03-13T03:29:51.201Z,1.63
2023-03-13T03:36:41.512Z,1.90
2023-03-13T03:39:08.261Z,1.60
2023-03-13T03:41:37.343Z,2.03
2023-03-13T03:44:05.413Z,2.03
2023-03-13T03:46:44.415Z,2.50
2023-03-13T03:49:12.028Z,2.20
2023-03-13T03:51:39.631Z,2.30
2023-03-13T03:54:06.892Z,3.25
2023-03-13T03:56:34.347Z,2.28
2023-03-13T03:59:01.348Z,2.42
2023-03-13T04:01:46.759Z,2.53
2023-03-13T04:04:17.289Z,2.80
2023-03-13T04:06:50.670Z,2.50
2023-03-13T04:09:17.349Z,2.85
2023-03-13T04:11:43.919Z,2.60
2023-03-13T04:14:11.780Z,2.50
2023-03-13T04:16:38.434Z,2.85
2023-03-13T04:19:05.021Z,2.83
2023-03-13T04:21:32.896Z,2.63
2023-03-13T04:24:04.210Z,2.58
2023-03-13T04:26:32.137Z,2.35
2023-03-13T04:28:59.503Z,2.03
2023-03-13T04:31:39.544Z,2.67
2023-03-13T04:34:20.306Z,2.38
2023-03-13T04:37:19.378Z,2.03
2023-03-13T04:40:18.341Z,2.10
2023-03-13T04:43:03.716Z,2.28
2023-03-13T04:45:47.060Z,2.00
2023-03-13T04:48:27.680Z,2.40
2023-03-13T04:51:13.229Z,2.40
2023-03-13T04:53:48.472Z,2.72
2023-03-13T04:56:42.314Z,2.70
2023-03-13T04:59:38.487Z,2.70
2023-03-13T05:02:28.080Z,2.80
2023-03-13T05:05:13.163Z,2.45
2023-03-13T05:07:55.549Z,2.88
2023-03-13T05:10:31.021Z,3.00
2023-03-13T05:13:14.058Z,3.10
2023-03-13T05:16:07.139Z,3.10
2023-03-13T05:18:56.321Z,3.47
2023-03-13T05:21:41.888Z,3.55
2023-03-13T05:24:28.729Z,3.40
2023-03-13T05:27:08.659Z,3.17
2023-03-13T05:29:55.515Z,3.50
2023-03-13T05:32:54.274Z,3.33
2023-03-13T05:35:39.267Z,3.47
2023-03-13T05:38:24.607Z,3.30
2023-03-13T05:41:26.959Z,3.53
2023-03-13T05:44:05.400Z,3.22
2023-03-13T05:46:55.171Z,3.00
2023-03-13T05:49:36.694Z,3.47
2023-03-13T05:52:21.643Z,2.63
2023-03-13T05:55:08.571Z,3.05
2023-03-13T05:57:54.063Z,2.50
2023-03-13T06:00:40.932Z,2.47
2023-03-13T06:03:46.254Z,2.58
2023-03-13T06:06:15.070Z,2.20
2023-03-13T06:08:46.121Z,2.60
2023-03-13T06:11:14.732Z,2.05
2023-03-13T06:13:41.493Z,2.38
2023-03-13T06:16:18.658Z,2.75
2023-03-13T06:18:47.738Z,2.40
2023-03-13T06:21:14.514Z,2.22
2023-03-13T06:23:42.215Z,1.98
2023-03-13T06:26:09.319Z,2.28
2023-03-13T06:28:36.166Z,2.20
2023-03-13T06:31:05.375Z,2.72
2023-03-13T06:33:32.560Z,2.00
2023-03-13T06:36:02.152Z,2.03
2023-03-13T06:38:29.669Z,2.03
2023-03-13T06:40:58.239Z,2.22
2023-03-13T06:43:25.664Z,2.20
2023-03-13T06:45:52.540Z,1.98
2023-03-13T06:48:21.499Z,2.55
2023-03-13T06:50:48.652Z,2.65
2023-03-13T06:53:20.026Z,2.78
2023-03-13T06:58:25.396Z,2.17
2023-03-13T07:00:57.869Z,2.55
2023-03-13T07:03:25.162Z,2.30
2023-03-13T07:05:58.708Z,2.58
2023-03-13T07:08:25.839Z,2.22
2023-03-13T07:10:53.542Z,2.63
2023-03-13T07:13:22.541Z,2.80
2023-03-13T07:15:49.329Z,2.42
2023-03-13T07:18:16.158Z,2.55
2023-03-13T07:20:43.480Z,2.90
2023-03-13T07:23:10.922Z,2.35
2023-03-13T07:25:38.007Z,2.15
2023-03-13T07:28:05.075Z,2.33
2023-03-13T07:30:31.764Z,2.40
2023-03-13T07:32:58.938Z,2.33
2023-03-13T07:35:25.653Z,2.33
2023-03-13T07:37:52.425Z,2.55
2023-03-13T07:40:19.117Z,3.35
2023-03-13T07:42:45.954Z,2.72
2023-03-13T07:45:13.378Z,2.92
2023-03-13T07:47:40.235Z,2.85
2023-03-13T07:50:08.234Z,2.28
2023-03-13T07:52:34.947Z,2.83
2023-03-13T07:55:01.718Z,2.38
2023-03-13T07:57:28.868Z,3.03
2023-03-13T07:59:55.599Z,2.67
2023-03-13T08:02:22.551Z,2.83
2023-03-13T08:04:53.287Z,2.72
2023-03-13T08:07:19.903Z,2.97
2023-03-13T08:09:46.603Z,3.28
2023-03-13T08:12:13.205Z,2.85
2023-03-13T08:14:39.923Z,3.28
2023-03-13T08:17:06.606Z,3.17
2023-03-13T08:19:33.502Z,2.85
2023-03-13T08:22:00.226Z,2.67
2023-03-13T08:24:26.941Z,2.55
2023-03-13T08:26:53.918Z,2.92
2023-03-13T08:29:20.615Z,3.25
2023-03-13T08:31:48.886Z,2.97
2023-03-13T08:34:16.447Z,3.00
2023-03-13T08:36:43.233Z,2.78
2023-03-13T08:39:17.539Z,3.42
2023-03-13T08:41:44.473Z,3.15
2023-03-13T08:44:12.969Z,3.08
2023-03-13T08:46:39.877Z,3.20
2023-03-13T08:49:07.764Z,2.95
2023-03-13T08:51:35.317Z,2.70
2023-03-13T08:54:03.231Z,2.95
2023-03-13T08:56:30.635Z,3.03
2023-03-13T08:58:59.903Z,2.65
2023-03-13T09:01:32.155Z,2.83
2023-03-13T09:04:00.653Z,2.63
2023-03-13T09:06:29.434Z,2.78
2023-03-13T09:08:58.033Z,2.90
2023-03-13T09:11:24.924Z,3.05
2023-03-13T09:13:51.616Z,2.67
2023-03-13T09:16:23.260Z,3.10
2023-03-13T09:18:50.820Z,2.88
2023-03-13T09:21:22.642Z,3.00
2023-03-13T09:23:49.845Z,2.88
2023-03-13T09:26:17.821Z,2.92
2023-03-13T09:28:44.384Z,3.15
2023-03-13T09:31:14.542Z,2.92
2023-03-13T09:33:42.252Z,3.25
2023-03-13T09:36:09.452Z,2.67
2023-03-13T09:38:36.548Z,2.88
2023-03-13T09:41:15.799Z,3.40
2023-03-13T09:43:50.769Z,3.03
2023-03-13T09:46:18.731Z,3.40
2023-03-13T09:48:58.675Z,3.45
2023-03-13T09:51:36.552Z,2.65
2023-03-13T09:54:20.560Z,2.97
2023-03-13T09:56:52.861Z,2.75
2023-03-13T09:59:28.493Z,2.80
2023-03-13T10:01:57.734Z,2.80
2023-03-13T10:04:41.530Z,3.45
2023-03-13T10:07:12.169Z,2.40
2023-03-13T10:09:40.708Z,2.85
2023-03-13T10:12:12.622Z,2.33
2023-03-13T10:14:45.321Z,2.10
2023-03-13T10:17:30.317Z,2.13
2023-03-13T10:20:21.954Z,2.42
2023-03-13T10:22:52.553Z,2.10
2023-03-13T10:25:27.581Z,2.13
2023-03-13T10:27:55.107Z,2.00
2023-03-13T10:30:36.279Z,1.80
2023-03-13T10:33:08.648Z,1.80
2023-03-13T10:35:38.102Z,1.80
2023-03-13T10:38:15.664Z,2.10
2023-03-13T10:40:42.927Z,1.80
2023-03-13T10:43:14.607Z,1.48
2023-03-13T10:45:41.138Z,1.40
2023-03-13T10:48:29.761Z,1.60
2023-03-13T10:50:57.463Z,1.63
2023-03-13T10:53:23.999Z,1.70
2023-03-13T10:55:54.337Z,1.50
2023-03-13T10:58:24.757Z,1.50
2023-03-13T11:00:51.312Z,1.50
2023-03-13T11:03:33.257Z,1.60
2023-03-13T11:06:01.952Z,1.20
2023-03-13T11:08:34.504Z,1.45
2023-03-13T11:11:10.874Z,1.40
2023-03-13T11:13:42.885Z,1.42
2023-03-13T11:16:29.507Z,1.25
2023-03-13T11:18:55.998Z,1.27
2023-03-13T11:21:37.629Z,1.67
2023-03-13T11:24:08.983Z,1.38
2023-03-13T11:29:15.789Z,1.15
2023-03-13T11:31:49.028Z,1.00
2023-03-13T11:34:25.692Z,1.20
2023-03-13T11:37:05.806Z,1.35
2023-03-13T11:39:51.050Z,0.93
2023-03-13T11:42:45.042Z,0.93
2023-03-13T11:45:17.660Z,0.80
2023-03-13T11:48:15.803Z,0.70
2023-03-13T11:50:52.761Z,1.00
2023-03-13T11:53:28.376Z,1.10
2023-03-13T11:56:01.912Z,0.93
2023-03-13T11:59:00.836Z,0.90
2023-03-13T12:01:30.504Z,1.55
2023-03-13T12:04:05.506Z,1.02
2023-03-13T12:06:35.164Z,1.27
2023-03-13T12:09:19.735Z,1.10
2023-03-13T12:12:03.390Z,1.10
2023-03-13T12:14:45.542Z,1.00
2023-03-13T12:17:23.026Z,0.90
2023-03-13T12:19:55.277Z,0.90
2023-03-13T12:22:36.632Z,1.10
2023-03-13T12:25:23.989Z,0.85
2023-03-13T12:27:58.518Z,0.93
2023-03-13T12:30:34.696Z,0.90
2023-03-13T12:33:03.970Z,1.00
2023-03-13T12:35:33.544Z,0.90
2023-03-13T12:38:15.939Z,0.98
2023-03-13T12:41:10.356Z,1.30
2023-03-13T12:43:40.100Z,1.20
2023-03-13T12:46:12.522Z,1.00
2023-03-13T12:49:16.374Z,0.80
2023-03-13T12:51:59.020Z,0.80
2023-03-13T12:54:38.550Z,0.80
2023-03-13T12:57:49.713Z,0.90
2023-03-13T13:00:22.494Z,0.80
2023-03-13T13:03:03.169Z,0.70
2023-03-13T13:05:29.703Z,0.85
2023-03-13T13:07:56.489Z,0.98
2023-03-13T13:10:26.263Z,1.92
2023-03-13T13:13:38.476Z,1.00
2023-03-13T13:16:07.824Z,0.95
2023-03-13T13:18:34.863Z,1.15
2023-03-13T13:21:04.956Z,0.85
2023-03-13T13:23:36.731Z,1.00
2023-03-13T13:26:33.467Z,1.20
2023-03-13T13:29:01.241Z,1.15
2023-03-13T13:31:45.251Z,1.02
2023-03-13T13:34:30.816Z,0.93
2023-03-13T13:36:58.537Z,1.00
2023-03-13T13:39:33.371Z,1.10
2023-03-13T13:42:00.151Z,1.00
2023-03-13T13:44:28.841Z,0.95
2023-03-13T13:46:56.532Z,0.90
2023-03-13T13:49:29.380Z,1.30
2023-03-13T13:51:58.487Z,1.02
2023-03-13T13:54:33.623Z,1.15
2023-03-13T13:57:07.394Z,1.20
2023-03-13T13:59:42.940Z,1.10
2023-03-13T14:02:10.678Z,1.10
2023-03-13T14:04:55.542Z,1.20
2023-03-13T14:07:50.453Z,1.08
2023-03-13T14:10:21.781Z,1.20
2023-03-13T14:12:56.944Z,1.40
2023-03-13T14:15:30.046Z,1.13
2023-03-13T14:18:09.332Z,1.33
2023-03-13T14:20:39.164Z,1.40
2023-03-13T14:23:11.003Z,1.25
2023-03-13T14:25:49.102Z,1.10
2023-03-13T14:28:21.697Z,1.08
2023-03-13T14:30:50.032Z,1.20
2023-03-13T14:33:16.800Z,1.20
2023-03-13T14:35:43.715Z,0.98
2023-03-13T14:38:24.506Z,1.10
2023-03-13T14:40:53.048Z,1.17
2023-03-13T14:43:34.008Z,1.40
2023-03-13T14:46:01.230Z,1.10
2023-03-13T14:48:34.412Z,1.08
2023-03-13T14:51:14.719Z,0.98
2023-03-13T14:54:00.187Z,1.40
2023-03-13T14:56:35.838Z,1.10
2023-03-13T14:59:20.130Z,1.08
2023-03-13T15:01:46.648Z,1.15
2023-03-13T15:04:13.337Z,1.48
2023-03-13T15:06:39.842Z,1.00
2023-03-13T15:09:25.063Z,1.30
2023-03-13T15:11:59.389Z,0.93
2023-03-13T15:14:41.895Z,1.25
2023-03-13T15:17:23.166Z,1.00
2023-03-13T15:19:57.785Z,1.30
2023-03-13T15:22:26.623Z,1.30
2023-03-13T15:25:05.313Z,1.20
2023-03-13T15:27:33.307Z,1.20
2023-03-13T15:29:59.852Z,1.52
2023-03-13T15:32:27.952Z,1.20
2023-03-13T15:34:58.509Z,1.20
2023-03-13T15:37:26.201Z,1.53
2023-03-13T15:39:53.498Z,1.98
2023-03-13T15:42:20.239Z,1.65
2023-03-13T15:44:46.778Z,1.63
2023-03-13T15:47:17.654Z,1.60
2023-03-13T15:49:44.206Z,1.30
2023-03-13T15:52:19.385Z,1.45
2023-03-13T15:54:46.383Z,1.60
2023-03-13T15:57:18.251Z,1.50
2023-03-13T15:59:45.146Z,1.50
2023-03-13T16:02:19.450Z,1.50
2023-03-13T16:04:46.360Z,1.50
2023-03-13T16:07:14.945Z,1.40
2023-03-13T16:09:42.213Z,1.40
2023-03-13T16:12:09.562Z,1.75
2023-03-13T16:14:36.293Z,1.70
2023-03-13T16:17:04.027Z,1.20
2023-03-13T16:19:30.830Z,1.63
2023-03-13T16:21:57.418Z,1.80
2023-03-13T16:24:23.925Z,1.50
2023-03-13T16:26:50.451Z,1.40
2023-03-13T16:29:17.221Z,1.75
2023-03-13T16:31:43.750Z,1.90
2023-03-13T16:34:10.246Z,1.75
2023-03-13T16:36:37.050Z,1.80
2023-03-13T16:39:08.856Z,1.95
2023-03-13T16:41:35.461Z,2.55
2023-03-13T16:44:02.772Z,1.95
2023-03-13T16:46:36.336Z,2.08
2023-03-13T16:49:03.978Z,1.80
2023-03-13T16:51:30.815Z,1.88
2023-03-13T16:54:01.257Z,1.63
2023-03-13T16:56:35.746Z,1.70
2023-03-13T16:59:04.199Z,1.80
2023-03-13T17:01:31.205Z,2.22
2023-03-13T17:03:58.726Z,1.80
2023-03-13T17:06:33.934Z,1.65
2023-03-13T17:09:03.938Z,2.17
2023-03-13T17:11:30.851Z,2.28
2023-03-13T17:13:58.513Z,1.98
2023-03-13T17:16:30.221Z,1.48
2023-03-13T17:18:56.834Z,1.70
2023-03-13T17:21:25.873Z,1.67
2023-03-13T17:23:53.417Z,1.73
2023-03-13T17:26:20.945Z,1.73
2023-03-13T17:28:49.547Z,1.83
2023-03-13T17:31:16.641Z,2.00
2023-03-13T17:33:43.259Z,1.75
2023-03-13T17:36:30.252Z,1.80
2023-03-13T17:38:58.971Z,2.03
2023-03-13T17:41:28.168Z,2.58
2023-03-13T17:43:55.197Z,2.20
2023-03-13T17:46:24.308Z,2.00
2023-03-13T17:48:52.790Z,1.83
2023-03-13T17:51:22.309Z,2.03
2023-03-13T17:53:49.676Z,2.30
2023-03-13T17:56:21.670Z,2.03
2023-03-13T17:58:50.208Z,2.30
2023-03-13T18:01:19.189Z,2.00
2023-03-13T18:03:45.748Z,2.50
2023-03-13T18:06:26.927Z,6.13
2023-03-13T18:08:56.334Z,2.05
2023-03-13T18:11:25.722Z,1.90
2023-03-13T18:13:52.638Z,2.13
2023-03-13T18:16:27.050Z,2.38
2023-03-13T18:18:54.628Z,2.15
2023-03-13T18:21:22.983Z,2.58
2023-03-13T18:23:49.960Z,2.50
2023-03-13T18:26:21.077Z,2.45
2023-03-13T18:28:47.680Z,2.55
2023-03-13T18:31:14.504Z,3.40
2023-03-13T18:33:41.903Z,2.53
2023-03-13T18:36:15.981Z,2.55
2023-03-13T18:38:42.828Z,2.80
2023-03-13T18:41:10.987Z,2.20
2023-03-13T18:43:38.061Z,2.22
2023-03-13T18:46:04.916Z,2.35
2023-03-13T18:48:31.451Z,2.20
2023-03-13T18:50:57.923Z,2.25
2023-03-13T18:53:26.183Z,2.88
2023-03-13T18:55:53.956Z,2.20
2023-03-13T18:58:20.424Z,2.50
2023-03-13T19:00:47.116Z,2.60
2023-03-13T19:03:13.837Z,2.25
2023-03-13T19:05:40.364Z,2.13
2023-03-13T19:08:09.049Z,3.30
2023-03-13T19:10:38.416Z,2.40
2023-03-13T19:13:04.939Z,2.60
2023-03-13T19:15:31.765Z,2.58
2023-03-13T19:18:01.795Z,2.20
2023-03-13T19:20:29.741Z,2.47
2023-03-13T19:23:00.289Z,2.60
2023-03-13T19:25:26.873Z,2.63
2023-03-13T19:27:53.615Z,2.53
2023-03-13T19:30:22.425Z,2.33
2023-03-13T19:32:49.268Z,2.55
2023-03-13T19:35:21.585Z,2.90
2023-03-13T19:37:48.331Z,2.83
2023-03-13T19:40:21.736Z,2.60
2023-03-13T19:42:48.227Z,2.70
2023-03-13T19:45:17.468Z,2.55
2023-03-13T19:47:44.828Z,2.53
2023-03-13T19:50:23.863Z,2.40
2023-03-13T19:52:50.420Z,2.50
2023-03-13T19:55:17.125Z,2.60
2023-03-13T19:57:43.897Z,4.97
2023-03-13T20:00:24.810Z,2.80
2023-03-13T20:02:57.117Z,2.53
2023-03-13T20:05:27.305Z,2.60
2023-03-13T20:07:54.359Z,3.28
2023-03-13T20:10:21.714Z,2.58
2023-03-13T20:12:48.477Z,2.78
2023-03-13T20:15:15.052Z,3.28
2023-03-13T20:17:41.589Z,3.28
2023-03-13T20:20:09.803Z,2.95
2023-03-13T20:22:36.803Z,2.83
2023-03-13T20:25:03.464Z,3.55
2023-03-13T20:27:29.927Z,2.80
2023-03-13T20:29:56.553Z,2.83
2023-03-13T20:32:23.074Z,2.95
2023-03-13T20:34:49.630Z,2.63
2023-03-13T20:37:16.160Z,2.90
2023-03-13T20:39:42.674Z,3.25
2023-03-13T20:42:09.353Z,2.38
2023-03-13T20:44:35.978Z,2.58
2023-03-13T20:47:02.489Z,2.90
2023-03-13T20:49:29.020Z,3.00
2023-03-13T20:51:55.579Z,2.95
2023-03-13T20:54:22.088Z,3.20
2023-03-13T20:56:48.603Z,2.38
2023-03-13T20:59:15.146Z,2.53
2023-03-13T21:01:41.976Z,2.70
2023-03-13T21:04:08.558Z,4.18
2023-03-13T21:06:35.042Z,2.70
2023-03-13T21:09:01.810Z,3.00
2023-03-13T21:11:28.356Z,2.67
2023-03-13T21:13:54.859Z,2.75
2023-03-13T21:16:21.434Z,2.47
2023-03-13T21:18:47.966Z,3.10
2023-03-13T21:21:19.039Z,3.08
2023-03-13T21:23:46.449Z,3.45
2023-03-13T21:26:13.859Z,2.70
2023-03-13T21:28:40.587Z,2.90
2023-03-13T21:31:11.668Z,3.10
2023-03-13T21:33:38.906Z,3.13
2023-03-13T21:36:05.975Z,2.45
2023-03-13T21:38:32.657Z,2.95
2023-03-13T21:40:59.328Z,2.50
2023-03-13T21:43:28.118Z,2.42
2023-03-13T21:45:59.291Z,2.53
2023-03-13T21:48:26.334Z,2.38
2023-03-13T21:50:53.326Z,2.63
2023-03-13T21:53:19.986Z,2.50
2023-03-13T21:55:50.848Z,2.47
2023-03-13T21:58:17.929Z,2.40
2023-03-13T22:00:44.903Z,2.60
2023-03-13T22:03:11.660Z,2.58
2023-03-13T22:05:44.945Z,2.80
2023-03-13T22:08:12.093Z,2.35
2023-03-13T22:10:39.350Z,2.95
2023-03-13T22:13:07.533Z,2.05
2023-03-13T22:15:34.387Z,2.40
2023-03-13T22:18:00.884Z,2.70
2023-03-13T22:20:27.668Z,2.20
2023-03-13T22:22:54.242Z,2.35
2023-03-13T22:25:20.814Z,2.20
2023-03-13T22:27:47.662Z,2.30
2023-03-13T22:30:14.322Z,2.20
2023-03-13T22:32:40.876Z,2.50
2023-03-13T22:35:08.425Z,2.20
2023-03-13T22:37:35.054Z,2.10
2023-03-13T22:40:02.264Z,1.90
2023-03-13T22:42:28.783Z,2.10
2023-03-13T22:44:55.834Z,3.22
2023-03-13T22:47:22.958Z,2.25
2023-03-13T22:49:50.336Z,2.30
2023-03-13T22:52:16.866Z,2.58
2023-03-13T22:54:46.326Z,2.25
2023-03-13T22:57:13.357Z,2.10
2023-03-13T22:59:39.902Z,1.80
2023-03-13T23:02:06.410Z,2.20
2023-03-13T23:04:33.057Z,2.53
2023-03-13T23:06:59.567Z,2.25
2023-03-13T23:09:26.132Z,2.33
2023-03-13T23:11:52.632Z,2.40
2023-03-13T23:14:19.149Z,2.20
2023-03-13T23:16:45.892Z,2.20
2023-03-13T23:19:12.394Z,1.95
2023-03-13T23:21:38.879Z,2.40
2023-03-13T23:24:05.635Z,2.08
2023-03-13T23:26:32.159Z,1.90
2023-03-13T23:28:58.632Z,1.95
2023-03-13T23:31:25.097Z,2.30
2023-03-13T23:33:51.651Z,2.33
2023-03-13T23:36:19.204Z,2.13
2023-03-13T23:38:49.143Z,1.63
2023-03-13T23:41:15.789Z,2.10
2023-03-13T23:43:42.382Z,1.90
2023-03-13T23:46:17.060Z,2.05
2023-03-13T23:48:43.916Z,2.22
2023-03-13T23:51:10.519Z,1.83
2023-03-13T23:53:38.761Z,2.10
2023-03-13T23:56:05.926Z,2.08
2023-03-13T23:58:33.442Z,1.85
